Time;durP1;ratioP1;P1;durP2;ratioP2;P2;SDS_P1;SDS_P2;PMS_P1;PMS_P2;Temp;Humidity;BMP_temperature;BMP_pressure;BME280_temperature;BME280_humidity;BME280_pressure;Samples;Min_cycle;Max_cycle;Signal;HPM_P1;HPM_P2
2022/10/07 00:01:50;;;;;;;16.17;5.93;;;;;;;8.63;93.43;102688.75;5069439;28;20043;-67
2022/10/07 00:04:16;;;;;;;15.02;6.20;;;;;;;8.58;93.35;102687.38;5068794;28;20032;-67
2022/10/07 00:06:41;;;;;;;16.92;6.68;;;;;;;8.57;93.66;102693.91;5069167;28;20025;-67
2022/10/07 00:09:07;;;;;;;15.02;5.90;;;;;;;8.55;93.34;102689.59;5069773;28;20029;-66
2022/10/07 00:11:32;;;;;;;15.75;6.60;;;;;;;8.49;92.82;102688.41;5084434;28;20612;-67
2022/10/07 00:14:01;;;;;;;17.45;6.57;;;;;;;8.49;94.03;102684.81;5066722;28;20584;-67
2022/10/07 00:16:29;;;;;;;12.80;5.88;;;;;;;8.45;93.74;102675.22;5061352;28;20028;-66
2022/10/07 00:18:56;;;;;;;16.55;6.47;;;;;;;8.46;94.23;102669.56;5067099;28;20032;-67
2022/10/07 00:21:23;;;;;;;15.68;6.28;;;;;;;8.44;94.38;102668.06;5051086;28;20508;-67
2022/10/07 00:23:49;;;;;;;16.58;6.25;;;;;;;8.40;94.18;102669.41;5066969;28;20090;-66
2022/10/07 00:26:21;;;;;;;13.45;5.85;;;;;;;8.38;94.04;102672.34;5068374;28;20025;-68
2022/10/07 00:28:47;;;;;;;18.13;6.30;;;;;;;8.36;94.09;102666.16;5069063;28;20029;-66
2022/10/07 00:31:26;;;;;;;15.52;6.05;;;;;;;8.33;94.38;102671.97;5068634;28;20070;-67
2022/10/07 00:33:53;;;;;;;15.43;6.22;;;;;;;8.36;94.57;102663.41;5067510;28;20056;-67
2022/10/07 00:36:25;;;;;;;16.20;6.35;;;;;;;8.36;94.66;102652.47;5058622;28;20033;-67
2022/10/07 00:38:51;;;;;;;17.00;6.32;;;;;;;8.36;94.80;102655.19;5067131;28;20490;-67
2022/10/07 00:41:21;;;;;;;13.65;5.80;;;;;;;8.32;94.78;102654.69;5068349;28;20051;-67
2022/10/07 00:43:47;;;;;;;14.50;5.47;;;;;;;8.29;94.66;102646.81;5067286;28;20083;-66
2022/10/07 00:46:25;;;;;;;15.25;6.75;;;;;;;8.30;95.20;102653.13;5049978;28;20127;-66
2022/10/07 00:48:52;;;;;;;12.77;5.68;;;;;;;8.25;94.97;102639.94;5083807;28;20036;-66
2022/10/07 00:51:17;;;;;;;13.95;6.07;;;;;;;8.25;95.03;102645.44;5065886;28;20024;-67
2022/10/07 00:53:46;;;;;;;14.90;6.20;;;;;;;8.26;95.42;102641.69;5068514;28;20032;-67
2022/10/07 00:56:16;;;;;;;15.15;6.00;;;;;;;8.27;95.52;102642.53;5066858;28;20075;-66
2022/10/07 00:58:45;;;;;;;19.13;6.10;;;;;;;8.25;95.59;102644.56;5069099;28;20487;-67
2022/10/07 01:01:10;;;;;;;18.02;6.30;;;;;;;8.24;95.33;102638.25;5068622;28;20032;-67
2022/10/07 01:03:37;;;;;;;13.57;5.75;;;;;;;8.19;95.54;102632.44;5117638;22;20056;-66
2022/10/07 01:06:03;;;;;;;14.80;6.35;;;;;;;8.18;95.88;102633.47;5064836;28;20390;-66
2022/10/07 01:08:29;;;;;;;17.70;6.20;;;;;;;8.19;95.82;102635.16;5067133;28;20071;-67
2022/10/07 01:11:12;;;;;;;15.27;5.47;;;;;;;8.15;96.15;102628.31;5065547;28;20070;-67
2022/10/07 01:14:02;;;;;;;15.50;5.82;;;;;;;8.22;96.52;102623.88;5067600;28;20037;-66
2022/10/07 01:16:39;;;;;;;16.40;6.40;;;;;;;8.18;96.36;102625.25;5068097;28;20043;-66
2022/10/07 01:19:16;;;;;;;14.93;5.93;;;;;;;8.15;96.07;102614.63;5067366;28;20036;-67
2022/10/07 01:21:44;;;;;;;12.82;5.75;;;;;;;8.16;96.27;102608.16;5067121;28;20036;-67
2022/10/07 01:24:32;;;;;;;14.63;5.85;;;;;;;8.15;96.28;102611.91;5065521;28;20120;-67
2022/10/07 01:27:02;;;;;;;15.32;5.65;;;;;;;8.17;96.32;102606.28;5065779;28;20051;-67
2022/10/07 01:29:42;;;;;;;15.18;6.25;;;;;;;8.20;96.51;102606.75;5048371;28;20064;-66
2022/10/07 01:32:39;;;;;;;17.30;6.30;;;;;;;8.22;96.64;102599.25;5065609;28;20020;-67
2022/10/07 01:35:14;;;;;;;18.73;6.13;;;;;;;8.20;96.30;102590.34;5008018;28;20048;-67
2022/10/07 01:37:45;;;;;;;15.52;5.50;;;;;;;8.28;96.79;102584.88;5057782;28;20499;-67
2022/10/07 01:40:14;;;;;;;17.75;5.97;;;;;;;8.29;96.67;102578.34;5063993;28;20028;-67
2022/10/07 01:42:40;;;;;;;16.05;5.97;;;;;;;8.29;96.81;102569.28;5048863;28;20108;-67
2022/10/07 01:45:08;;;;;;;16.85;5.57;;;;;;;8.29;96.83;102570.16;5059210;28;20111;-67
2022/10/07 01:47:34;;;;;;;16.67;6.10;;;;;;;8.31;96.52;102562.63;5066476;28;20605;-67
2022/10/07 01:49:59;;;;;;;16.80;5.70;;;;;;;8.31;96.72;102564.50;5056117;28;20021;-67
2022/10/07 01:52:39;;;;;;;17.02;5.80;;;;;;;8.31;96.42;102556.28;5054960;28;20033;-67
2022/10/07 01:55:29;;;;;;;16.00;5.45;;;;;;;8.31;96.60;102559.00;5059852;28;20025;-67
2022/10/07 01:58:14;;;;;;;17.75;5.80;;;;;;;8.31;96.69;102551.69;5056736;28;20490;-66
2022/10/07 02:00:50;;;;;;;17.52;5.38;;;;;;;8.24;96.82;102544.31;5061222;28;20067;-67
2022/10/07 02:03:42;;;;;;;17.88;5.78;;;;;;;8.23;97.12;102540.75;5067352;28;20427;-66
2022/10/07 02:06:29;;;;;;;16.42;5.82;;;;;;;8.19;97.29;102549.47;5065020;28;20446;-67
2022/10/07 02:09:00;;;;;;;13.73;5.90;;;;;;;8.14;97.29;102554.59;5065322;28;20165;-66
2022/10/07 02:11:28;;;;;;;15.57;5.97;;;;;;;8.15;97.45;102542.63;5053838;28;20028;-67
2022/10/07 02:14:10;;;;;;;18.50;5.40;;;;;;;8.17;98.16;102549.66;5066399;28;20036;-65
2022/10/07 02:16:42;;;;;;;15.25;6.05;;;;;;;8.11;97.96;102539.41;5064797;28;20475;-66
2022/10/07 02:19:15;;;;;;;14.30;5.45;;;;;;;8.11;97.80;102533.03;5047793;28;20032;-66
2022/10/07 02:21:44;;;;;;;16.35;5.50;;;;;;;8.12;97.87;102529.31;5047911;28;20169;-65
2022/10/07 02:24:12;;;;;;;16.08;5.72;;;;;;;8.06;97.83;102530.84;5064596;28;20032;-67
2022/10/07 02:26:39;;;;;;;;;;;;;;;8.16;96.65;102534.25;5066609;28;20036;-67
2022/10/07 02:29:08;;;;;;;17.08;5.60;;;;;;;8.05;97.36;102527.25;5063991;28;20397;-66
2022/10/07 02:31:35;;;;;;;;;;;;;;;8.17;96.32;102516.81;5065419;28;20033;-67
2022/10/07 02:34:03;;;;;;;13.70;5.63;;;;;;;8.05;97.51;102520.91;5065085;28;20416;-66
2022/10/07 02:36:33;;;;;;;;;;;;;;;8.14;96.25;102511.66;5064829;28;20064;-67
2022/10/07 02:39:00;;;;;;;16.58;6.20;;;;;;;8.01;96.78;102505.91;5050229;28;19916;-67
2022/10/07 02:41:47;;;;;;;17.15;5.93;;;;;;;8.01;97.96;102500.44;5059744;28;20023;-67
2022/10/07 02:44:19;;;;;;;16.40;6.35;;;;;;;7.95;98.23;102507.41;5065227;28;20032;-67
2022/10/07 02:46:50;;;;;;;18.15;5.85;;;;;;;7.92;98.63;102512.41;5050007;28;20454;-67
2022/10/07 02:49:19;;;;;;;16.45;6.00;;;;;;;7.91;98.72;102497.88;5063116;28;20103;-67
2022/10/07 02:51:49;;;;;;;17.60;6.20;;;;;;;7.89;98.87;102499.91;5059537;28;20032;-67
2022/10/07 02:54:19;;;;;;;18.40;6.20;;;;;;;7.92;99.16;102491.38;5066991;28;20040;-67
2022/10/07 02:56:46;;;;;;;15.23;5.93;;;;;;;7.86;98.82;102489.31;5064207;28;20382;-66
2022/10/07 02:59:13;;;;;;;20.25;6.32;;;;;;;7.86;98.75;102489.31;5064541;28;20032;-67
2022/10/07 03:01:44;;;;;;;16.70;6.32;;;;;;;7.84;99.19;102488.63;5066268;28;20033;-67
2022/10/07 03:04:10;;;;;;;16.65;5.85;;;;;;;7.89;99.36;102485.38;5064367;28;20036;-67
2022/10/07 03:06:35;;;;;;;18.30;7.30;;;;;;;7.85;99.27;102482.13;5065281;28;20025;-66
2022/10/07 03:09:01;;;;;;;14.50;6.38;;;;;;;7.85;99.30;102478.53;5065355;28;20032;-67
2022/10/07 03:11:27;;;;;;;19.98;6.68;;;;;;;7.85;98.98;102476.66;5065505;28;20451;-66
2022/10/07 03:13:52;;;;;;;15.32;5.75;;;;;;;7.82;99.07;102474.28;5066074;28;20429;-66
2022/10/07 03:16:18;;;;;;;23.45;7.38;;;;;;;7.83;99.73;102475.13;5065871;28;20028;-66
2022/10/07 03:18:45;;;;;;;18.77;6.70;;;;;;;7.84;99.53;102474.09;5066017;28;20034;-66
2022/10/07 03:21:10;;;;;;;20.20;7.03;;;;;;;7.83;99.96;102472.41;5044232;28;20041;-67
2022/10/07 03:23:35;;;;;;;18.55;6.97;;;;;;;7.80;99.74;102468.97;5065168;28;20107;-67
2022/10/07 03:26:00;;;;;;;18.67;6.85;;;;;;;7.82;100.00;102457.03;5064809;28;20107;-67
2022/10/07 03:28:28;;;;;;;21.00;6.97;;;;;;;7.85;100.00;102462.97;5065580;28;20078;-66
2022/10/07 03:31:03;;;;;;;21.55;7.43;;;;;;;7.82;100.00;102460.59;5053620;28;20632;-66
2022/10/07 03:33:28;;;;;;;18.25;6.60;;;;;;;7.77;99.55;102460.25;5061287;28;20021;-66
2022/10/07 03:35:53;;;;;;;19.63;7.05;;;;;;;7.80;99.69;102460.75;5063587;28;20033;-66
2022/10/07 03:38:19;;;;;;;17.45;7.15;;;;;;;7.77;99.36;102447.44;5065736;28;20059;-66
2022/10/07 03:40:44;;;;;;;16.83;6.40;;;;;;;7.73;99.47;102448.81;5063335;28;20028;-66
2022/10/07 03:43:09;;;;;;;15.30;6.80;;;;;;;7.71;99.92;102444.56;5064045;28;20044;-67
2022/10/07 03:45:42;;;;;;;22.75;7.25;;;;;;;7.70;99.92;102440.94;5066139;28;20035;-66
2022/10/07 03:48:07;;;;;;;16.30;6.28;;;;;;;7.68;99.91;102439.41;5065528;28;20032;-67
2022/10/07 03:50:33;;;;;;;20.33;6.97;;;;;;;7.68;99.89;102445.75;5051803;28;20025;-67
2022/10/07 03:52:58;;;;;;;17.00;7.18;;;;;;;7.69;100.00;102447.44;5058282;28;20028;-67
2022/10/07 03:55:23;;;;;;;15.63;6.38;;;;;;;7.63;100.00;102437.19;5064041;28;20024;-67
2022/10/07 03:57:49;;;;;;;16.42;6.38;;;;;;;7.64;100.00;102441.63;5062845;28;20032;-66
2022/10/07 04:00:14;;;;;;;16.58;7.03;;;;;;;7.65;100.00;102447.94;5063961;28;20032;-66
2022/10/07 04:02:40;;;;;;;20.00;7.43;;;;;;;7.64;100.00;102438.91;5065182;28;20104;-65
2022/10/07 04:05:05;;;;;;;17.52;6.93;;;;;;;7.63;100.00;102431.72;5065141;28;20029;-67
2022/10/07 04:07:32;;;;;;;17.30;6.53;;;;;;;7.63;100.00;102437.19;5065142;28;20036;-66
2022/10/07 04:09:57;;;;;;;19.10;7.38;;;;;;;7.61;100.00;102438.41;5055504;28;20128;-67
2022/10/07 04:12:23;;;;;;;23.92;7.05;;;;;;;7.62;100.00;102437.38;5064372;28;20111;-67
2022/10/07 04:14:49;;;;;;;17.17;6.70;;;;;;;7.64;100.00;102432.59;5063548;28;20032;-66
2022/10/07 04:17:16;;;;;;;21.33;7.30;;;;;;;7.61;100.00;102436.53;5063715;28;20029;-67
2022/10/07 04:19:41;;;;;;;20.92;8.18;;;;;;;7.61;100.00;102425.59;5062149;28;20103;-66
2022/10/07 04:22:06;;;;;;;22.92;8.30;;;;;;;7.64;100.00;102432.59;5050741;28;20618;-66
2022/10/07 04:24:31;;;;;;;17.25;7.35;;;;;;;7.62;100.00;102423.72;5050758;28;20056;-66
2022/10/07 04:26:57;;;;;;;20.90;6.88;;;;;;;7.67;100.00;102427.63;5062539;28;20032;-66
2022/10/07 04:29:22;;;;;;;16.52;6.85;;;;;;;7.67;100.00;102419.44;5064021;28;20403;-67
2022/10/07 04:31:47;;;;;;;24.90;7.78;;;;;;;7.67;100.00;102427.63;5067813;28;20032;-68
2022/10/07 04:34:12;;;;;;;19.13;7.13;;;;;;;7.71;100.00;102423.53;5067243;28;20228;-68
2022/10/07 04:36:38;;;;;;;18.98;7.03;;;;;;;7.69;100.00;102421.97;5065646;28;20295;-65
2022/10/07 04:39:03;;;;;;;24.02;6.88;;;;;;;7.72;100.00;102424.38;5065051;28;20033;-67
2022/10/07 04:41:28;;;;;;;19.42;7.32;;;;;;;7.72;100.00;102427.97;5048292;28;20383;-67
2022/10/07 04:43:54;;;;;;;17.77;6.97;;;;;;;7.78;100.00;102421.78;5068339;28;20029;-67
2022/10/07 04:46:19;;;;;;;22.83;7.72;;;;;;;7.79;99.80;102420.75;5068631;28;20029;-67
2022/10/07 04:48:45;;;;;;;20.73;7.93;;;;;;;7.80;100.00;102425.19;5067997;28;20052;-67
2022/10/07 04:51:11;;;;;;;19.60;7.53;;;;;;;7.80;99.83;102433.41;5041180;28;20114;-67
2022/10/07 04:53:37;;;;;;;19.65;7.57;;;;;;;7.78;99.89;102430.00;5068077;28;20024;-68
2022/10/07 04:56:04;;;;;;;19.98;6.90;;;;;;;7.77;100.00;102425.56;5065317;28;20435;-68
2022/10/07 04:58:30;;;;;;;22.35;7.25;;;;;;;7.75;99.88;102418.53;5065024;28;20028;-68
2022/10/07 05:00:57;;;;;;;18.50;7.57;;;;;;;7.75;99.57;102419.38;5068128;28;20013;-68
2022/10/07 05:03:25;;;;;;;23.88;7.68;;;;;;;7.75;99.98;102422.13;5067392;28;20132;-68
2022/10/07 05:05:52;;;;;;;19.48;7.40;;;;;;;7.71;99.83;102415.31;5066606;28;20044;-68
2022/10/07 05:08:21;;;;;;;22.58;7.75;;;;;;;7.67;100.00;102407.63;5064217;28;20044;-67
2022/10/07 05:10:46;;;;;;;19.83;6.95;;;;;;;7.66;100.00;102414.13;5066870;28;20025;-66
2022/10/07 05:13:14;;;;;;;20.67;6.57;;;;;;;7.63;100.00;102409.84;5067899;28;20453;-68
2022/10/07 05:15:51;;;;;;;22.25;7.47;;;;;;;7.64;100.00;102406.09;5066049;28;20363;-68
2022/10/07 05:18:18;;;;;;;17.05;7.28;;;;;;;7.59;100.00;102408.50;5070168;28;20044;-67
2022/10/07 05:20:45;;;;;;;20.77;7.07;;;;;;;7.60;100.00;102404.72;5067753;28;20021;-67
2022/10/07 05:23:11;;;;;;;20.05;7.60;;;;;;;7.60;100.00;102407.44;5065604;28;20040;-68
2022/10/07 05:25:36;;;;;;;20.00;7.47;;;;;;;7.55;100.00;102412.59;5067206;28;20519;-69
2022/10/07 05:28:01;;;;;;;19.55;7.30;;;;;;;7.58;100.00;102405.94;5065757;28;20036;-68
2022/10/07 05:30:26;;;;;;;22.13;7.05;;;;;;;7.59;100.00;102407.63;5063459;28;20048;-68
2022/10/07 05:32:53;;;;;;;20.30;7.95;;;;;;;7.57;100.00;102399.63;5066604;28;20075;-67
2022/10/07 05:35:19;;;;;;;22.25;7.90;;;;;;;7.56;100.00;102397.06;5066170;28;20037;-66
2022/10/07 05:37:44;;;;;;;25.83;7.53;;;;;;;7.54;100.00;102389.88;5068280;28;20032;-67
2022/10/07 05:40:10;;;;;;;21.42;8.07;;;;;;;7.51;100.00;102390.22;5054881;28;20044;-67
2022/10/07 05:42:35;;;;;;;20.80;7.25;;;;;;;7.53;100.00;102384.56;5056131;28;20025;-67
2022/10/07 05:45:01;;;;;;;18.25;7.75;;;;;;;7.52;100.00;102391.06;5065485;28;20036;-67
2022/10/07 05:47:26;;;;;;;22.75;8.23;;;;;;;7.53;100.00;102398.25;5067009;28;20036;-70
2022/10/07 05:49:53;;;;;;;23.00;8.40;;;;;;;7.48;100.00;102392.44;5063858;28;20025;-69
2022/10/07 05:52:20;;;;;;;19.08;8.23;;;;;;;7.48;100.00;102390.56;5063716;28;20063;-68
2022/10/07 05:54:45;;;;;;;25.33;8.10;;;;;;;7.45;100.00;102385.47;5068087;28;20036;-68
2022/10/07 05:57:10;;;;;;;26.60;7.60;;;;;;;7.48;100.00;102387.81;5064798;28;20032;-68
2022/10/07 05:59:36;;;;;;;23.17;8.07;;;;;;;7.46;100.00;102387.16;5061203;28;20115;-68
2022/10/07 06:02:01;;;;;;;20.00;7.35;;;;;;;7.46;100.00;102375.38;5065046;28;20375;-68
2022/10/07 06:04:26;;;;;;;23.05;6.88;;;;;;;7.47;100.00;102377.06;5065718;28;20056;-69
2022/10/07 06:06:52;;;;;;;26.17;8.15;;;;;;;7.48;100.00;102376.03;5066644;28;20075;-69
2022/10/07 06:14:45;;;;;;;20.27;7.65;;;;;;;7.49;100.00;102369.53;5067545;28;20093;-68
2022/10/07 06:17:10;;;;;;;21.60;8.15;;;;;;;7.50;100.00;102365.78;5064244;28;20382;-68
2022/10/07 06:19:36;;;;;;;17.50;7.18;;;;;;;7.54;100.00;102370.72;5055788;28;20028;-68
2022/10/07 06:22:02;;;;;;;25.45;8.43;;;;;;;7.58;100.00;102370.38;5050452;28;20047;-67
2022/10/07 06:24:27;;;;;;;20.38;7.38;;;;;;;7.59;100.00;102369.34;5063494;28;20032;-68
2022/10/07 06:26:54;;;;;;;23.85;7.40;;;;;;;7.60;100.00;102366.44;5062669;28;20089;-68
2022/10/07 06:29:19;;;;;;;21.10;6.97;;;;;;;7.60;100.00;102368.31;5063627;28;20108;-70
2022/10/07 06:31:45;;;;;;;25.23;7.75;;;;;;;7.65;100.00;102368.66;5064596;28;20107;-69
2022/10/07 06:34:10;;;;;;;20.83;7.30;;;;;;;7.68;100.00;102363.69;5045822;28;20031;-69
2022/10/07 06:36:35;;;;;;;22.77;7.22;;;;;;;7.73;100.00;102366.75;5063636;28;20024;-70
2022/10/07 06:39:01;;;;;;;22.70;6.57;;;;;;;7.77;100.00;102364.53;5064520;28;20171;-69
2022/10/07 06:41:26;;;;;;;17.90;6.65;;;;;;;7.78;100.00;102367.09;5063158;28;20020;-69
2022/10/07 06:43:56;;;;;;;22.63;6.80;;;;;;;7.87;100.00;102375.28;5062998;28;20033;-67
2022/10/07 06:46:21;;;;;;;19.10;7.05;;;;;;;7.90;100.00;102373.03;5064210;28;20816;-69
2022/10/07 06:48:47;;;;;;;22.25;7.57;;;;;;;7.92;100.00;102373.72;5064821;28;20025;-67
2022/10/07 06:51:14;;;;;;;19.33;7.10;;;;;;;7.98;100.00;102370.28;5063726;28;20172;-68
2022/10/07 06:53:40;;;;;;;22.23;6.72;;;;;;;8.04;100.00;102371.44;5062473;28;20060;-68
2022/10/07 06:56:05;;;;;;;25.45;6.78;;;;;;;8.10;99.87;102368.00;5063162;28;20060;-69
2022/10/07 06:58:31;;;;;;;21.23;6.95;;;;;;;8.17;99.45;102369.03;5064418;28;20044;-69
2022/10/07 07:01:01;;;;;;;22.08;6.65;;;;;;;8.22;99.63;102368.50;5056753;28;20033;-70
2022/10/07 07:03:27;;;;;;;19.48;7.13;;;;;;;8.29;99.46;102370.31;5063993;28;20045;-68
2022/10/07 07:05:55;;;;;;;19.33;6.85;;;;;;;8.36;99.56;102370.47;5063844;28;20414;-68
2022/10/07 07:08:26;;;;;;;24.27;6.75;;;;;;;8.46;98.74;102376.59;5065992;28;20032;-68
2022/10/07 07:10:52;;;;;;;17.33;6.00;;;;;;;8.54;98.79;102375.72;5060922;28;20036;-69
2022/10/07 07:13:17;;;;;;;19.25;6.38;;;;;;;8.62;98.62;102372.06;5063946;28;20097;-69
2022/10/07 07:15:42;;;;;;;17.98;5.65;;;;;;;8.69;98.29;102368.44;5055988;28;20021;-68
2022/10/07 07:18:09;;;;;;;20.13;6.03;;;;;;;8.77;97.67;102368.38;5059986;28;20444;-69
2022/10/07 07:20:36;;;;;;;25.35;6.47;;;;;;;8.84;97.59;102372.09;5062153;28;20029;-67
2022/10/07 07:23:03;;;;;;;19.52;6.45;;;;;;;8.94;97.41;102371.00;5057108;28;20052;-66
2022/10/07 07:25:28;;;;;;;23.67;6.57;;;;;;;9.00;96.51;102370.25;5056132;28;20029;-68
2022/10/07 07:27:54;;;;;;;21.27;6.70;;;;;;;9.11;96.16;102367.09;5059766;28;20032;-68
2022/10/07 07:30:22;;;;;;;26.00;6.95;;;;;;;9.20;96.25;102371.47;5056561;28;20743;-69
2022/10/07 07:32:47;;;;;;;19.88;6.47;;;;;;;9.27;95.70;102375.16;5064857;28;20033;-69
2022/10/07 07:35:13;;;;;;;18.10;5.57;;;;;;;9.36;95.99;102370.47;5055314;28;20036;-69
2022/10/07 07:37:39;;;;;;;19.55;6.50;;;;;;;9.47;94.91;102374.66;5066166;28;20309;-69
2022/10/07 07:40:05;;;;;;;19.17;6.35;;;;;;;9.56;94.99;102366.16;5061198;28;20467;-69
2022/10/07 07:42:30;;;;;;;21.20;5.38;;;;;;;9.69;94.32;102367.41;5064058;28;20060;-69
2022/10/07 07:44:55;;;;;;;20.30;6.13;;;;;;;9.78;94.86;102364.41;5059329;28;20102;-69
2022/10/07 07:47:21;;;;;;;17.58;5.80;;;;;;;9.90;93.40;102363.94;5064128;28;20036;-68
2022/10/07 07:49:48;;;;;;;21.98;6.60;;;;;;;10.02;92.67;102363.25;5053691;28;20127;-68
2022/10/07 07:52:14;;;;;;;19.83;5.70;;;;;;;10.13;92.45;102364.66;5061781;28;20479;-68
2022/10/07 07:54:40;;;;;;;19.08;5.47;;;;;;;10.25;92.03;102362.34;5060638;28;20052;-68
2022/10/07 07:57:06;;;;;;;15.55;5.95;;;;;;;10.35;91.40;102357.38;5072910;28;20032;-68
2022/10/07 07:59:32;;;;;;;19.73;6.88;;;;;;;10.48;90.92;102351.19;5052226;28;20502;-68
2022/10/07 08:01:57;;;;;;;18.60;6.53;;;;;;;10.61;91.26;102359.59;5036822;28;20039;-67
2022/10/07 08:04:23;;;;;;;19.88;5.70;;;;;;;10.72;90.04;102360.97;5060701;28;20564;-67
2022/10/07 08:06:49;;;;;;;14.95;5.63;;;;;;;10.94;89.33;102353.59;5058549;28;20028;-68
2022/10/07 08:09:14;;;;;;;14.18;5.18;;;;;;;11.31;87.90;102350.56;5056256;28;20029;-68
2022/10/07 08:11:44;;;;;;;21.80;5.30;;;;;;;11.53;86.87;102347.75;5064664;28;20028;-68
2022/10/07 08:14:11;;;;;;;16.20;5.53;;;;;;;11.63;85.65;102340.00;5065351;28;20036;-68
2022/10/07 08:16:36;;;;;;;20.77;5.47;;;;;;;11.70;83.92;102344.50;5068221;28;20035;-68
2022/10/07 08:19:03;;;;;;;21.60;4.90;;;;;;;11.73;85.38;102348.75;5063634;28;20298;-67
2022/10/07 08:21:31;;;;;;;18.08;4.93;;;;;;;11.82;85.49;102342.06;5056630;28;20606;-67
2022/10/07 08:23:58;;;;;;;16.77;5.28;;;;;;;12.07;83.23;102342.44;5056780;28;20111;-67
2022/10/07 08:26:24;;;;;;;17.63;5.15;;;;;;;12.38;82.70;102341.06;5067080;28;20581;-68
2022/10/07 08:28:50;;;;;;;19.00;5.30;;;;;;;12.54;82.06;102342.63;5062246;28;20701;-68
2022/10/07 08:31:17;;;;;;;16.77;6.38;;;;;;;12.57;80.51;102332.03;5068862;28;20040;-68
2022/10/07 08:33:44;;;;;;;14.18;4.55;;;;;;;12.64;80.08;102340.31;5062943;28;20024;-68
2022/10/07 08:36:12;;;;;;;14.07;4.80;;;;;;;12.75;79.98;102338.84;5063505;28;20763;-68
2022/10/07 08:38:39;;;;;;;20.85;5.72;;;;;;;12.87;79.04;102328.88;5063097;28;20036;-67
2022/10/07 08:41:07;;;;;;;18.23;5.13;;;;;;;13.05;78.49;102337.41;5076778;28;20037;-68
2022/10/07 08:43:33;;;;;;;14.75;4.40;;;;;;;13.27;77.59;102332.56;5067129;28;20533;-67
2022/10/07 08:46:00;;;;;;;16.10;4.18;;;;;;;13.44;76.48;102324.72;5065153;28;20039;-67
2022/10/07 08:48:32;;;;;;;14.60;4.47;;;;;;;14.01;76.03;102326.72;5061504;28;20422;-67
2022/10/07 08:51:08;;;;;;;16.52;3.95;;;;;;;14.45;74.33;102319.53;5057397;28;20124;-67
2022/10/07 08:53:35;;;;;;;15.15;4.60;;;;;;;14.91;72.27;102323.94;5060833;28;20302;-68
2022/10/07 08:56:14;;;;;;;14.02;3.78;;;;;;;15.55;68.43;102305.28;5050328;28;20037;-67
2022/10/07 08:58:50;;;;;;;12.57;3.60;;;;;;;16.22;64.60;102295.19;5050519;28;20222;-67
2022/10/07 09:01:43;;;;;;;13.43;3.75;;;;;;;16.83;63.51;102302.47;5047806;28;20103;-66
2022/10/07 09:04:40;;;;;;;12.73;3.53;;;;;;;18.25;60.21;102308.84;5047532;28;20045;-67
2022/10/07 09:07:12;;;;;;;16.90;3.17;;;;;;;19.73;53.73;102292.88;5060305;28;20302;-67
2022/10/07 09:09:43;;;;;;;11.65;3.08;;;;;;;20.75;50.07;102305.31;5045538;28;20048;-67
2022/10/07 09:12:23;;;;;;;11.85;3.00;;;;;;;21.52;49.73;102301.25;5049347;28;20024;-67
2022/10/07 09:14:53;;;;;;;14.70;3.45;;;;;;;22.46;43.61;102302.31;5066075;28;20021;-68
2022/10/07 09:17:47;;;;;;;10.80;3.00;;;;;;;22.81;46.74;102298.75;5064916;28;20406;-68
2022/10/07 09:20:18;;;;;;;13.05;3.40;;;;;;;22.63;44.58;102299.28;5057078;28;20526;-67
2022/10/07 09:22:53;;;;;;;10.73;3.13;;;;;;;22.08;44.45;102284.78;5065987;28;20031;-66
2022/10/07 09:25:22;;;;;;;12.32;2.95;;;;;;;21.90;44.55;102297.28;5064995;28;20032;-67
2022/10/07 09:27:49;;;;;;;14.05;3.05;;;;;;;21.95;43.65;102280.53;5063009;28;20636;-67
2022/10/07 09:30:14;;;;;;;13.40;3.42;;;;;;;22.50;44.00;102283.81;5066192;28;20463;-67
2022/10/07 09:32:43;;;;;;;12.23;3.22;;;;;;;23.27;42.72;102291.22;5064101;28;20074;-67
2022/10/07 09:35:16;;;;;;;13.75;3.10;;;;;;;23.17;41.14;102290.41;5064166;28;20060;-67
2022/10/07 09:37:53;;;;;;;13.70;3.17;;;;;;;23.89;42.00;102277.13;5065564;28;20084;-67
2022/10/07 09:40:31;;;;;;;14.98;3.10;;;;;;;24.59;39.11;102275.13;5064644;28;20561;-68
2022/10/07 09:42:58;;;;;;;18.58;3.03;;;;;;;24.85;38.22;102265.38;5061602;28;20020;-67
2022/10/07 09:45:30;;;;;;;16.50;3.40;;;;;;;25.31;38.40;102269.78;5065267;28;20020;-67
2022/10/07 09:47:58;;;;;;;13.20;3.47;;;;;;;25.44;37.09;102266.25;5047264;28;20401;-67
2022/10/07 09:50:49;;;;;;;14.10;3.40;;;;;;;24.98;39.87;102263.84;5065117;28;20032;-67
2022/10/07 09:53:21;;;;;;;13.45;3.42;;;;;;;24.29;39.65;102257.28;5059774;28;20127;-67
2022/10/07 09:55:48;;;;;;;13.77;3.40;;;;;;;25.24;37.87;102247.66;5063827;28;20502;-67
2022/10/07 09:58:31;;;;;;;14.35;3.25;;;;;;;25.93;37.88;102256.75;5065541;28;20376;-67
2022/10/07 10:01:01;;;;;;;12.23;2.97;;;;;;;25.62;35.98;102250.63;5064312;28;20087;-67
2022/10/07 10:03:31;;;;;;;16.40;3.45;;;;;;;25.46;36.59;102247.13;5063589;28;20555;-66
2022/10/07 10:05:59;;;;;;;13.98;3.47;;;;;;;25.29;36.67;102235.47;5063937;28;20016;-66
2022/10/07 10:08:26;;;;;;;16.95;3.50;;;;;;;25.51;36.37;102243.44;5064577;28;20024;-67
2022/10/07 10:10:57;;;;;;;17.88;3.28;;;;;;;25.58;36.70;102249.53;5063885;28;20056;-66
2022/10/07 10:13:37;;;;;;;14.32;3.35;;;;;;;26.15;37.12;102236.47;5063414;28;20032;-67
2022/10/07 10:16:05;;;;;;;15.23;3.70;;;;;;;25.84;34.87;102236.84;5057642;28;20028;-66
2022/10/07 10:18:35;;;;;;;14.60;3.28;;;;;;;26.23;35.15;102227.34;5061875;28;20031;-66
2022/10/07 10:21:13;;;;;;;14.57;3.20;;;;;;;26.28;35.43;102224.44;5060665;28;20063;-67
2022/10/07 10:23:44;;;;;;;15.80;3.40;;;;;;;25.55;35.72;102219.19;5064226;28;20659;-66
2022/10/07 10:26:24;;;;;;;12.32;3.10;;;;;;;25.71;36.18;102219.84;5063503;28;20428;-67
2022/10/07 10:29:01;;;;;;;14.38;2.50;;;;;;;26.43;36.18;102217.78;5064798;28;20020;-66
2022/10/07 10:32:08;;;;;;;16.95;3.08;;;;;;;26.89;34.61;102212.25;5063470;28;20059;-66
2022/10/07 10:35:04;;;;;;;17.40;3.97;;;;;;;27.50;35.21;102204.66;4981320;28;20030;-66
2022/10/07 10:38:03;;;;;;;14.40;3.50;;;;;;;27.78;33.93;102199.03;5063521;28;20390;-68
2022/10/07 10:40:46;;;;;;;17.55;3.80;;;;;;;27.81;32.06;102199.25;5061599;28;20036;-66
2022/10/07 10:43:34;;;;;;;12.73;3.35;;;;;;;27.19;34.07;102193.13;5063285;28;20028;-66
2022/10/07 10:46:38;;;;;;;14.30;2.75;;;;;;;26.80;34.04;102191.53;5064098;28;20028;-66
2022/10/07 10:49:26;;;;;;;15.48;3.10;;;;;;;26.09;35.13;102187.00;5064308;28;20042;-66
2022/10/07 10:52:07;;;;;;;17.15;3.20;;;;;;;26.11;33.66;102185.56;5061543;28;20027;-66
2022/10/07 10:55:03;;;;;;;14.45;3.20;;;;;;;26.26;34.63;102187.31;5063329;28;20047;-67
2022/10/07 10:57:49;;;;;;;14.18;3.20;;;;;;;26.30;33.54;102177.09;5063109;28;20117;-66
2022/10/07 11:00:18;;;;;;;13.82;3.13;;;;;;;25.95;33.18;102169.16;5064493;28;20103;-67
2022/10/07 11:03:04;;;;;;;13.73;2.95;;;;;;;26.28;34.22;102170.94;5063051;28;20079;-67
2022/10/07 11:05:39;;;;;;;14.75;3.20;;;;;;;26.86;33.26;102161.25;5063439;28;20415;-67
2022/10/07 11:08:16;;;;;;;13.73;2.83;;;;;;;27.40;31.23;102154.91;5054694;28;20443;-66
2022/10/07 11:11:11;;;;;;;13.32;2.88;;;;;;;26.90;33.58;102160.34;5046717;28;20025;-67
2022/10/07 11:13:42;;;;;;;15.30;3.50;;;;;;;26.53;33.91;102160.44;5055328;28;20041;-68
2022/10/07 11:16:26;;;;;;;11.85;2.63;;;;;;;26.67;33.66;102152.03;5062453;28;20033;-66
2022/10/07 11:19:00;;;;;;;11.52;2.78;;;;;;;26.58;33.82;102154.72;5058777;28;20033;-66
2022/10/07 11:21:41;;;;;;;13.95;3.20;;;;;;;26.82;34.44;102149.78;5062982;28;20530;-66
2022/10/07 11:24:09;;;;;;;14.18;3.00;;;;;;;26.33;32.98;102145.50;5043168;28;20051;-67
2022/10/07 11:26:40;;;;;;;13.85;3.28;;;;;;;26.30;32.29;102137.66;5044451;28;20032;-66
2022/10/07 11:29:35;;;;;;;13.50;2.60;;;;;;;26.45;33.51;102133.78;5064662;28;20145;-66
2022/10/07 11:32:11;;;;;;;12.55;2.85;;;;;;;26.76;32.04;102117.19;5047865;28;20310;-67
2022/10/07 11:35:05;;;;;;;16.30;3.17;;;;;;;26.71;33.13;102119.25;5048372;28;20333;-66
2022/10/07 11:37:44;;;;;;;15.98;3.30;;;;;;;26.56;32.94;102104.31;5063593;28;20471;-66
2022/10/07 11:40:09;;;;;;;14.10;3.22;;;;;;;26.82;32.36;102099.06;5064706;28;20234;-67
2022/10/07 11:42:41;;;;;;;14.35;3.13;;;;;;;26.94;32.00;102092.06;5068013;28;20042;-67